Time;durP1;ratioP1;P1;durP2;ratioP2;P2;SDS_P1;SDS_P2;PMS_P1;PMS_P2;Temp;Humidity;BMP_temperature;BMP_pressure;BME280_temperature;BME280_humidity;BME280_pressure;Samples;Min_cycle;Max_cycle;Signal;HPM_P1;HPM_P2
2022/04/12 00:01:00;;;;;;;6.27;5.93;;;;;;;8.95;58.09;100639.59;5114614;28;20178;-68
2022/04/12 00:03:27;;;;;;;6.53;6.33;;;;;;;8.88;58.23;100643.34;5118363;27;20265;-68
2022/04/12 00:05:54;;;;;;;6.03;5.83;;;;;;;8.70;58.88;100641.34;5134308;27;20559;-68
2022/04/12 00:08:21;;;;;;;7.17;6.30;;;;;;;8.67;58.73;100644.09;5113878;28;20255;-68
2022/04/12 00:10:49;;;;;;;6.23;5.93;;;;;;;8.70;59.10;100629.16;5113336;28;20214;-68
2022/04/12 00:13:18;;;;;;;5.70;5.50;;;;;;;8.71;59.59;100632.63;5114275;27;20189;-69
2022/04/12 00:15:48;;;;;;;6.40;6.03;;;;;;;8.57;59.80;100634.84;5121550;27;20785;-68
2022/04/12 00:21:02;;;;;;;6.23;5.80;;;;;;;8.34;60.65;100630.38;5114080;28;20174;-68
2022/04/12 00:23:28;;;;;;;7.33;6.50;;;;;;;8.26;61.02;100620.22;5125304;28;20215;-68
2022/04/12 00:25:55;;;;;;;5.97;5.77;;;;;;;8.32;60.90;100614.78;5126120;28;20224;-69
2022/04/12 00:28:21;;;;;;;6.20;6.00;;;;;;;8.29;61.64;100617.53;5133006;28;20218;-68
2022/04/12 00:30:48;;;;;;;7.03;6.80;;;;;;;8.21;61.15;100612.53;5134181;28;20190;-68
2022/04/12 00:33:15;;;;;;;8.80;7.17;;;;;;;8.28;61.14;100621.00;5131751;28;20255;-68
2022/04/12 00:35:41;;;;;;;7.23;6.83;;;;;;;8.23;61.61;100615.97;5114233;28;20256;-68
2022/04/12 00:38:17;;;;;;;6.47;5.97;;;;;;;8.21;61.54;100624.72;5135812;27;20229;-68
2022/04/12 00:40:45;;;;;;;7.13;6.83;;;;;;;8.18;62.02;100611.78;5137752;27;20199;-68
2022/04/12 00:43:12;;;;;;;6.60;6.47;;;;;;;8.10;62.20;100608.59;5136641;27;20209;-68
2022/04/12 00:45:39;;;;;;;7.20;6.77;;;;;;;8.09;62.29;100609.50;5117963;28;20572;-68
2022/04/12 00:48:05;;;;;;;6.73;6.17;;;;;;;8.19;62.19;100608.28;5135138;27;20721;-68
2022/04/12 00:50:32;;;;;;;6.37;6.17;;;;;;;7.95;62.67;100595.16;5120091;27;20181;-68
2022/04/12 00:52:59;;;;;;;6.80;6.40;;;;;;;8.10;61.91;100592.94;5119667;27;20198;-68
2022/04/12 00:55:25;;;;;;;7.37;6.90;;;;;;;8.13;62.30;100595.44;5127299;27;20216;-68
2022/04/12 00:57:52;;;;;;;6.47;6.20;;;;;;;8.04;62.74;100593.16;5122245;27;20193;-68
2022/04/12 01:00:19;;;;;;;6.50;6.17;;;;;;;8.01;63.13;100591.50;5116920;27;20199;-68
2022/04/12 01:02:45;;;;;;;6.07;5.60;;;;;;;8.00;63.15;100585.44;5117639;28;20604;-68
2022/04/12 01:05:12;;;;;;;5.90;5.70;;;;;;;8.01;62.83;100578.47;5123983;27;20216;-68
2022/04/12 01:07:39;;;;;;;6.60;6.37;;;;;;;7.92;63.49;100584.81;5123969;27;20521;-68
2022/04/12 01:10:06;;;;;;;6.53;6.23;;;;;;;7.95;63.29;100584.72;5116824;27;20197;-68
2022/04/12 01:12:38;;;;;;;6.80;6.50;;;;;;;7.98;63.00;100587.22;5117216;28;20185;-68
2022/04/12 01:15:19;;;;;;;5.70;5.57;;;;;;;7.91;63.54;100582.25;5116818;27;20205;-68
2022/04/12 01:17:47;;;;;;;6.27;5.83;;;;;;;7.95;63.44;100584.72;5123048;27;20647;-68
2022/04/12 01:20:17;;;;;;;5.93;5.70;;;;;;;7.77;64.38;100574.88;5123826;27;20204;-68
2022/04/12 01:23:09;;;;;;;7.07;6.87;;;;;;;7.83;63.45;100574.69;5121997;27;20193;-68
2022/04/12 01:25:39;;;;;;;6.83;6.63;;;;;;;7.80;64.15;100585.22;5116233;27;20208;-69
2022/04/12 01:28:08;;;;;;;6.00;5.77;;;;;;;7.66;65.66;100575.22;5131198;27;20189;-68
2022/04/12 01:30:35;;;;;;;6.20;6.10;;;;;;;7.65;65.17;100575.28;5134879;27;20230;-68
2022/04/12 01:33:02;;;;;;;6.93;6.73;;;;;;;7.63;65.27;100579.69;5137388;27;20193;-68
2022/04/12 01:35:28;;;;;;;6.07;5.97;;;;;;;7.61;65.32;100565.84;5136530;27;20208;-68
2022/04/12 01:37:55;;;;;;;7.20;6.90;;;;;;;7.58;65.47;100563.34;5131703;27;20193;-68
2022/04/12 01:40:21;;;;;;;6.67;6.47;;;;;;;7.56;65.95;100565.13;5137174;27;20200;-68
2022/04/12 01:42:48;;;;;;;6.63;6.47;;;;;;;7.55;66.24;100558.22;5136191;27;20543;-68
2022/04/12 01:45:15;;;;;;;6.67;6.37;;;;;;;7.59;66.21;100562.44;5137060;27;20701;-68
2022/04/12 01:47:41;;;;;;;6.97;6.47;;;;;;;7.54;66.34;100557.38;5130021;27;20196;-69
2022/04/12 01:50:08;;;;;;;7.67;6.97;;;;;;;7.56;66.06;100552.97;5126302;27;20647;-68
2022/04/12 01:52:35;;;;;;;6.30;6.00;;;;;;;7.63;66.13;100548.41;5115873;27;20193;-68
2022/04/12 01:55:03;;;;;;;6.93;6.53;;;;;;;7.55;65.98;100548.66;5119994;27;20683;-68
2022/04/12 01:57:29;;;;;;;6.17;6.07;;;;;;;7.55;66.19;100560.81;5126696;27;20176;-68
2022/04/12 01:59:59;;;;;;;7.03;6.63;;;;;;;7.51;66.59;100554.03;5136210;27;20196;-68
2022/04/12 02:02:25;;;;;;;6.87;6.47;;;;;;;7.38;67.30;100556.16;5132589;27;20596;-69
2022/04/12 02:04:52;;;;;;;7.43;7.00;;;;;;;7.50;66.50;100562.72;5116147;28;20205;-68
2022/04/12 02:07:19;;;;;;;6.77;6.50;;;;;;;7.33;67.39;100556.28;5106807;27;20181;-68
2022/04/12 02:09:45;;;;;;;6.50;6.30;;;;;;;7.55;66.36;100547.81;5135678;27;20543;-68
2022/04/12 02:12:11;;;;;;;6.23;5.93;;;;;;;7.39;67.31;100545.69;5136631;27;20248;-68
2022/04/12 02:14:38;;;;;;;7.00;6.63;;;;;;;7.28;67.53;100545.16;5134463;27;20226;-68
2022/04/12 02:17:04;;;;;;;7.23;6.93;;;;;;;7.37;67.88;100539.69;5131926;27;20185;-68
2022/04/12 02:19:31;;;;;;;7.03;6.63;;;;;;;7.29;68.03;100538.22;5136441;27;20197;-68
2022/04/12 02:21:57;;;;;;;6.80;6.40;;;;;;;7.24;68.35;100533.13;5128340;27;20715;-68
2022/04/12 02:24:23;;;;;;;8.53;7.37;;;;;;;7.13;69.29;100527.38;5117128;27;20189;-68
2022/04/12 02:26:50;;;;;;;6.83;6.43;;;;;;;7.02;69.81;100529.47;5115013;27;20220;-67
2022/04/12 02:29:16;;;;;;;6.67;6.37;;;;;;;7.18;69.29;100534.16;5116000;28;20234;-67
2022/04/12 02:31:43;;;;;;;7.00;6.67;;;;;;;7.11;69.49;100537.00;5115692;28;20308;-67
2022/04/12 02:34:09;;;;;;;7.30;6.90;;;;;;;7.02;69.90;100537.28;5116193;28;20189;-67
2022/04/12 02:36:36;;;;;;;7.40;7.10;;;;;;;7.02;70.22;100538.13;5115783;27;20755;-68
2022/04/12 02:39:03;;;;;;;6.70;6.53;;;;;;;7.19;69.58;100532.41;5130025;27;20204;-68
2022/04/12 02:41:30;;;;;;;6.73;6.33;;;;;;;7.19;69.11;100537.63;5115376;27;20252;-68
2022/04/12 02:43:56;;;;;;;7.27;7.00;;;;;;;7.02;70.52;100539.88;5128366;27;20540;-68
2022/04/12 02:46:23;;;;;;;7.67;7.07;;;;;;;7.09;70.25;100531.00;5135685;27;20747;-68
2022/04/12 02:48:49;;;;;;;9.30;6.93;;;;;;;7.16;70.05;100529.91;5117040;27;20295;-68
2022/04/12 02:51:16;;;;;;;6.73;6.60;;;;;;;7.09;70.71;100517.97;5133565;27;20204;-69
2022/04/12 02:53:42;;;;;;;8.07;7.27;;;;;;;7.03;70.84;100518.16;5127209;27;20196;-68
2022/04/12 02:56:08;;;;;;;8.37;7.87;;;;;;;7.06;70.51;100513.69;5135794;27;20281;-68
2022/04/12 02:58:35;;;;;;;6.97;6.77;;;;;;;7.03;71.06;100520.75;5116748;27;20193;-68
2022/04/12 03:01:01;;;;;;;8.33;7.63;;;;;;;7.11;70.93;100516.19;5114593;28;20231;-68
2022/04/12 03:03:28;;;;;;;7.13;6.93;;;;;;;7.08;70.99;100514.53;5115316;28;20588;-68
2022/04/12 03:05:54;;;;;;;7.53;7.13;;;;;;;7.04;71.18;100509.44;5116670;27;20938;-68
2022/04/12 03:08:21;;;;;;;7.60;7.30;;;;;;;7.17;70.83;100510.78;5125639;27;20547;-68
2022/04/12 03:10:47;;;;;;;7.83;7.57;;;;;;;7.17;70.73;100519.44;5135444;27;20192;-68
2022/04/12 03:13:14;;;;;;;7.83;7.53;;;;;;;7.07;71.27;100524.97;5135998;27;20189;-68
2022/04/12 03:15:40;;;;;;;8.43;7.83;;;;;;;7.00;71.45;100519.13;5134470;27;20211;-68
2022/04/12 03:18:07;;;;;;;8.47;7.63;;;;;;;7.05;71.24;100518.97;5121345;27;20181;-68
2022/04/12 03:20:34;;;;;;;7.90;7.40;;;;;;;7.10;71.11;100522.28;5131232;27;20205;-68
2022/04/12 03:23:05;;;;;;;8.20;7.80;;;;;;;7.06;71.08;100518.91;5119076;27;20189;-68
2022/04/12 03:25:31;;;;;;;8.50;7.70;;;;;;;6.97;71.73;100531.34;5114621;28;20205;-68
2022/04/12 03:27:58;;;;;;;8.30;8.03;;;;;;;6.99;71.68;100519.13;5119210;27;20222;-68
2022/04/12 03:30:24;;;;;;;8.83;8.27;;;;;;;7.07;71.34;100512.81;5128474;27;20189;-68
2022/04/12 03:32:51;;;;;;;8.57;7.83;;;;;;;7.13;71.56;100506.56;5114015;27;20191;-68
2022/04/12 03:35:17;;;;;;;7.50;7.40;;;;;;;7.02;71.88;100508.66;5114084;27;20221;-68
2022/04/12 03:37:44;;;;;;;8.33;7.93;;;;;;;6.96;71.99;100501.03;5128040;27;20249;-68
2022/04/12 03:40:11;;;;;;;8.53;8.03;;;;;;;6.99;71.98;100498.31;5134440;27;20276;-69
2022/04/12 03:42:37;;;;;;;9.80;8.37;;;;;;;6.99;71.78;100493.97;5124182;27;20200;-68
2022/04/12 03:45:04;;;;;;;8.70;8.10;;;;;;;6.93;72.41;100501.09;5134958;27;20234;-68
2022/04/12 03:47:31;;;;;;;9.53;8.83;;;;;;;6.93;72.23;100501.09;5127715;27;20177;-68
2022/04/12 03:49:57;;;;;;;10.03;9.27;;;;;;;6.86;72.68;100509.13;5131372;27;20188;-68
2022/04/12 03:52:24;;;;;;;9.27;8.53;;;;;;;6.96;72.02;100501.03;5114966;27;20189;-68
2022/04/12 03:54:50;;;;;;;9.87;7.63;;;;;;;6.93;72.40;100503.69;5113864;28;20205;-68
2022/04/12 03:57:17;;;;;;;12.10;8.77;;;;;;;6.88;72.75;100501.25;5119018;27;20169;-68
2022/04/12 03:59:43;;;;;;;7.50;7.10;;;;;;;6.98;72.10;100507.03;5122199;27;20608;-68
2022/04/12 04:02:10;;;;;;;9.37;8.87;;;;;;;6.89;72.61;100500.34;5127024;27;20225;-68
2022/04/12 04:04:36;;;;;;;9.30;8.40;;;;;;;6.80;73.20;100498.88;5116966;27;20184;-68
2022/04/12 04:07:03;;;;;;;8.50;8.10;;;;;;;6.85;72.88;100494.38;5115180;28;20261;-68
2022/04/12 04:09:30;;;;;;;9.37;8.77;;;;;;;6.92;72.77;100488.97;5113869;28;20219;-68
2022/04/12 04:11:56;;;;;;;9.70;9.27;;;;;;;6.87;73.16;100479.59;5114688;27;20207;-68
2022/04/12 04:14:22;;;;;;;9.13;8.53;;;;;;;6.75;73.78;100479.94;5115277;27;20190;-68
2022/04/12 04:16:49;;;;;;;11.97;9.37;;;;;;;6.79;73.67;100478.97;5113088;28;20269;-68
2022/04/12 04:19:15;;;;;;;9.80;9.00;;;;;;;6.74;74.39;100475.63;5117292;27;20200;-68
2022/04/12 04:21:42;;;;;;;10.10;9.30;;;;;;;6.69;74.46;100472.31;5113766;28;20250;-67
2022/04/12 04:24:08;;;;;;;20.43;9.30;;;;;;;6.69;74.64;100474.06;5120214;28;20222;-68
2022/04/12 04:26:35;;;;;;;9.73;9.23;;;;;;;6.60;74.93;100468.22;5118531;28;20201;-68
2022/04/12 04:29:01;;;;;;;10.73;9.97;;;;;;;6.64;74.97;100458.56;5123180;28;20187;-68
2022/04/12 04:31:28;;;;;;;9.07;8.37;;;;;;;6.59;75.62;100468.28;5114310;28;21429;-68
2022/04/12 04:33:56;;;;;;;11.40;10.43;;;;;;;6.62;75.34;100470.78;5115228;28;20203;-68
2022/04/12 04:36:23;;;;;;;10.20;9.53;;;;;;;6.65;75.13;100465.50;5113525;28;20279;-67
2022/04/12 04:38:49;;;;;;;9.90;9.10;;;;;;;6.67;75.02;100468.91;5112803;28;20235;-67
2022/04/12 04:41:16;;;;;;;11.30;9.43;;;;;;;6.65;75.00;100478.50;5113433;28;20250;-67
2022/04/12 04:43:45;;;;;;;10.80;9.90;;;;;;;6.66;75.11;100475.00;5114108;28;20703;-67
2022/04/12 04:46:13;;;;;;;11.47;10.37;;;;;;;6.56;75.54;100477.00;5114170;28;20205;-67
2022/04/12 04:48:41;;;;;;;10.67;9.70;;;;;;;6.59;75.37;100471.72;5113427;28;20219;-67
2022/04/12 04:51:08;;;;;;;10.80;9.90;;;;;;;6.55;75.50;100475.31;5113501;28;20177;-67
2022/04/12 04:53:37;;;;;;;10.90;10.10;;;;;;;6.62;75.32;100491.59;5113983;28;20192;-67
2022/04/12 04:56:05;;;;;;;11.33;10.33;;;;;;;6.60;75.30;100485.59;5113360;28;20625;-67
2022/04/12 04:58:32;;;;;;;11.23;10.13;;;;;;;6.57;75.58;100485.66;5113378;28;20249;-67
2022/04/12 05:00:58;;;;;;;10.00;9.40;;;;;;;6.57;75.47;100485.66;5114639;28;20279;-67
2022/04/12 05:03:27;;;;;;;16.63;10.60;;;;;;;6.72;74.74;100487.84;5113908;28;20551;-67
2022/04/12 05:05:53;;;;;;;10.47;9.83;;;;;;;6.66;75.23;100492.38;5117333;28;20224;-68
2022/04/12 05:08:20;;;;;;;10.23;9.43;;;;;;;6.71;74.90;100490.47;5123781;28;20193;-68
2022/04/12 05:10:46;;;;;;;11.13;10.07;;;;;;;6.61;75.31;100495.94;5119061;28;20188;-68
2022/04/12 05:13:12;;;;;;;12.37;10.13;;;;;;;6.68;75.20;100504.44;5114281;28;20645;-68
2022/04/12 05:15:39;;;;;;;10.77;9.90;;;;;;;6.72;75.31;100492.19;5120287;28;20295;-68
2022/04/12 05:18:05;;;;;;;11.37;10.53;;;;;;;6.64;75.75;100495.00;5121396;28;20715;-68
2022/04/12 05:20:32;;;;;;;10.30;9.63;;;;;;;6.80;75.29;100491.06;5112236;28;20683;-68
2022/04/12 05:22:58;;;;;;;11.50;10.40;;;;;;;6.72;75.12;100497.41;5136448;27;20649;-67
2022/04/12 05:25:25;;;;;;;10.50;9.63;;;;;;;6.62;75.99;100496.78;5129031;27;20234;-68
2022/04/12 05:27:51;;;;;;;10.73;10.07;;;;;;;6.61;76.16;100487.28;5123536;27;20195;-68
2022/04/12 05:30:18;;;;;;;12.67;11.50;;;;;;;6.59;76.56;100495.16;5123067;27;20642;-68
2022/04/12 05:32:45;;;;;;;11.33;10.33;;;;;;;6.57;76.75;100501.25;5125693;27;20188;-68
2022/04/12 05:35:13;;;;;;;11.20;10.30;;;;;;;6.63;76.37;100509.75;5126114;27;20215;-68
2022/04/12 05:37:48;;;;;;;12.13;11.00;;;;;;;6.76;75.79;100504.19;5137399;27;20184;-68
2022/04/12 05:40:15;;;;;;;11.20;10.40;;;;;;;6.71;76.29;100506.06;5129930;27;20203;-68
2022/04/12 05:42:42;;;;;;;11.70;10.73;;;;;;;6.71;76.41;100501.72;5120226;27;20231;-68
2022/04/12 05:45:10;;;;;;;11.50;10.53;;;;;;;6.76;76.23;100494.66;5121369;27;20212;-68
2022/04/12 05:47:50;;;;;;;10.47;9.67;;;;;;;6.74;76.31;100493.84;5136491;27;20196;-68
2022/04/12 05:50:21;;;;;;;18.67;9.90;;;;;;;6.70;76.97;100500.03;5130406;27;20185;-68
2022/04/12 05:52:48;;;;;;;11.17;10.10;;;;;;;6.73;77.13;100492.16;5124160;27;20191;-68
2022/04/12 05:55:17;;;;;;;22.03;11.20;;;;;;;6.75;77.78;100497.31;5117945;27;20212;-68
2022/04/12 05:57:56;;;;;;;13.17;10.90;;;;;;;6.89;77.55;100498.59;5116720;27;20200;-68
2022/04/12 06:00:24;;;;;;;11.33;10.40;;;;;;;7.06;76.96;100499.84;5116402;28;20604;-68
2022/04/12 06:02:52;;;;;;;12.93;10.87;;;;;;;7.15;77.60;100499.56;5115799;28;20174;-68
2022/04/12 06:05:20;;;;;;;10.87;10.17;;;;;;;7.42;76.57;100496.09;5080815;28;20706;-68
2022/04/12 06:07:46;;;;;;;11.67;10.77;;;;;;;7.67;74.69;100503.13;5114844;28;20177;-68
2022/04/12 06:10:15;;;;;;;10.80;10.13;;;;;;;7.72;74.44;100514.25;5116103;28;20234;-68
2022/04/12 06:12:41;;;;;;;11.67;10.70;;;;;;;7.79;74.16;100510.53;5116037;28;20194;-68
2022/04/12 06:15:08;;;;;;;12.87;10.73;;;;;;;7.84;74.45;100519.03;5115947;28;20559;-68
2022/04/12 06:17:36;;;;;;;11.83;10.83;;;;;;;7.85;75.43;100510.31;5115921;28;20597;-68
2022/04/12 06:20:10;;;;;;;11.20;10.40;;;;;;;7.85;75.79;100510.31;5115864;28;20261;-68
2022/04/12 06:22:38;;;;;;;11.13;10.30;;;;;;;7.99;76.71;100520.28;5115847;28;20189;-68
2022/04/12 06:25:06;;;;;;;10.37;9.47;;;;;;;8.23;75.86;100510.78;5115767;28;20250;-68
2022/04/12 06:27:37;;;;;;;12.07;10.50;;;;;;;8.43;76.83;100503.16;5097699;28;20185;-68
2022/04/12 06:30:13;;;;;;;10.77;8.93;;;;;;;8.61;75.11;100504.22;5115979;28;20227;-68
2022/04/12 06:32:40;;;;;;;12.23;11.20;;;;;;;8.79;73.96;100505.31;5115860;28;20218;-68
2022/04/12 06:35:11;;;;;;;10.73;9.93;;;;;;;9.10;73.20;100508.44;5115249;28;20204;-68
2022/04/12 06:37:40;;;;;;;14.30;10.23;;;;;;;9.27;71.83;100507.78;5115746;28;20179;-68
2022/04/12 06:40:09;;;;;;;10.30;9.70;;;;;;;9.46;70.65;100507.06;5115356;28;20716;-68
2022/04/12 06:42:36;;;;;;;10.50;9.37;;;;;;;9.77;68.23;100512.75;5115377;28;20649;-68
2022/04/12 06:45:06;;;;;;;15.30;9.60;;;;;;;9.97;65.83;100505.84;5115298;28;20216;-68
2022/04/12 06:47:33;;;;;;;10.83;10.13;;;;;;;10.17;66.41;100501.47;5115598;28;20245;-68
2022/04/12 06:50:01;;;;;;;11.00;9.97;;;;;;;10.50;65.31;100495.69;5115891;28;20242;-68
2022/04/12 06:52:27;;;;;;;10.43;9.30;;;;;;;10.58;64.88;100485.75;5115284;28;20613;-68
2022/04/12 06:54:54;;;;;;;12.00;10.90;;;;;;;10.67;64.05;100493.19;5115026;28;20273;-68
2022/04/12 06:57:20;;;;;;;11.30;10.20;;;;;;;10.73;63.30;100492.06;5115541;28;20177;-68
2022/04/12 06:59:47;;;;;;;10.27;9.37;;;;;;;10.90;63.30;100496.50;5115113;28;20242;-68
2022/04/12 07:02:13;;;;;;;13.93;10.37;;;;;;;11.05;63.35;100495.78;5115067;28;20208;-68
2022/04/12 07:04:40;;;;;;;12.70;8.77;;;;;;;11.18;62.69;100494.28;5115160;28;20217;-68
2022/04/12 07:07:06;;;;;;;13.90;9.20;;;;;;;11.40;60.88;100485.41;5114975;28;20192;-67
2022/04/12 07:09:33;;;;;;;13.67;9.63;;;;;;;11.61;61.33;100473.03;5114945;28;20238;-67
2022/04/12 07:12:01;;;;;;;9.47;8.67;;;;;;;11.75;62.30;100476.66;5115118;28;20211;-67
2022/04/12 07:14:29;;;;;;;8.00;7.50;;;;;;;12.02;60.07;100487.56;5115030;28;20193;-68
2022/04/12 07:16:56;;;;;;;11.63;8.77;;;;;;;12.22;60.38;100491.81;5115427;28;20230;-68
2022/04/12 07:19:23;;;;;;;10.07;8.90;;;;;;;12.48;59.48;100505.34;5114746;28;20214;-68
2022/04/12 07:21:49;;;;;;;8.60;7.80;;;;;;;12.73;58.78;100513.63;5114910;28;20254;-68
2022/04/12 07:24:16;;;;;;;7.87;7.10;;;;;;;12.78;59.05;100503.69;5114938;28;20215;-68
2022/04/12 07:26:43;;;;;;;8.80;8.20;;;;;;;12.87;56.84;100511.09;5114808;28;20254;-68
2022/04/12 07:29:09;;;;;;;8.33;7.73;;;;;;;13.09;56.50;100502.03;5114582;28;20234;-69
2022/04/12 07:31:36;;;;;;;13.67;7.57;;;;;;;13.18;56.37;100501.53;5114573;28;20647;-69
2022/04/12 07:34:03;;;;;;;7.37;7.13;;;;;;;13.33;57.29;100507.75;5114394;28;20739;-69
2022/04/12 07:36:29;;;;;;;6.17;5.70;;;;;;;13.69;53.48;100507.44;5114379;28;20209;-69
2022/04/12 07:38:56;;;;;;;5.13;4.70;;;;;;;14.02;56.90;100505.47;5114432;28;20185;-69
2022/04/12 07:41:22;;;;;;;4.47;4.37;;;;;;;14.13;52.19;100499.56;5114778;28;20201;-69
2022/04/12 07:43:49;;;;;;;7.30;4.87;;;;;;;14.30;53.85;100502.06;5114318;28;20234;-69
2022/04/12 07:46:16;;;;;;;4.53;4.53;;;;;;;14.52;51.58;100506.91;5114075;28;20613;-68
2022/04/12 07:48:48;;;;;;;4.60;4.40;;;;;;;14.59;52.94;100516.13;5114574;28;20173;-68
2022/04/12 07:51:15;;;;;;;4.70;4.60;;;;;;;14.76;51.74;100515.06;5114710;28;20520;-69
2022/04/12 07:53:42;;;;;;;4.40;4.30;;;;;;;14.82;50.50;100506.78;5114118;28;20655;-69
2022/04/12 07:56:08;;;;;;;10.90;5.00;;;;;;;14.95;49.75;100514.78;5113845;28;20710;-69
2022/04/12 07:58:35;;;;;;;4.53;4.43;;;;;;;15.15;50.83;100510.91;5114856;28;20246;-69
2022/04/12 08:01:02;;;;;;;4.10;4.10;;;;;;;15.28;49.23;100510.94;5114279;28;20201;-69
2022/04/12 08:03:28;;;;;;;5.23;4.90;;;;;;;15.47;48.63;100511.44;5113989;28;20193;-69
2022/04/12 08:05:56;;;;;;;6.23;4.03;;;;;;;15.63;46.97;100506.88;5114164;28;20197;-69
2022/04/12 08:08:22;;;;;;;3.57;3.57;;;;;;;15.69;47.13;100501.22;5113899;28;20594;-69
2022/04/12 08:10:48;;;;;;;3.70;3.67;;;;;;;15.76;48.62;100487.59;5113853;28;20185;-69
2022/04/12 08:13:15;;;;;;;3.67;3.57;;;;;;;15.99;50.02;100476.34;5113841;28;20185;-69
2022/04/12 08:15:42;;;;;;;3.97;3.87;;;;;;;16.09;49.68;100482.72;5113720;28;20300;-70
2022/04/12 08:18:08;;;;;;;3.60;3.60;;;;;;;16.34;47.84;100479.22;5113744;28;20188;-69
2022/04/12 08:20:35;;;;;;;3.83;3.70;;;;;;;16.36;46.78;100479.09;5113737;28;20720;-69
2022/04/12 08:23:02;;;;;;;3.47;3.27;;;;;;;16.55;46.18;100471.59;5113753;28;20222;-69
2022/04/12 08:25:29;;;;;;;12.80;3.40;;;;;;;16.73;45.31;100472.16;5113897;28;20201;-69
2022/04/12 08:27:55;;;;;;;3.37;3.27;;;;;;;16.76;43.72;100478.03;5113665;28;20230;-69
2022/04/12 08:30:22;;;;;;;3.80;3.60;;;;;;;16.84;44.89;100474.84;5114211;28;20185;-69
2022/04/12 08:32:49;;;;;;;3.53;3.53;;;;;;;16.95;45.65;100469.66;5113626;28;20218;-69
2022/04/12 08:35:16;;;;;;;3.33;3.23;;;;;;;17.17;45.52;100468.94;5113534;28;20333;-69
2022/04/12 08:37:43;;;;;;;3.00;3.00;;;;;;;17.36;45.37;100467.59;5114037;28;20185;-69
2022/04/12 08:40:11;;;;;;;3.33;3.23;;;;;;;17.58;44.29;100473.00;5113499;28;20185;-70
2022/04/12 08:42:39;;;;;;;2.80;2.77;;;;;;;17.69;43.39;100483.63;5113469;28;20250;-69
2022/04/12 08:45:06;;;;;;;4.57;2.83;;;;;;;17.77;42.85;100481.28;5113521;28;20204;-69
2022/04/12 08:47:36;;;;;;;2.17;2.13;;;;;;;17.85;42.52;100486.00;5113819;28;20555;-69
2022/04/12 08:50:05;;;;;;;2.50;2.50;;;;;;;18.06;42.49;100479.06;5096055;28;20263;-69
2022/04/12 08:52:32;;;;;;;2.80;2.10;;;;;;;18.05;43.19;100474.72;5113473;28;20218;-69
2022/04/12 08:54:59;;;;;;;1.97;1.97;;;;;;;18.10;41.94;100477.88;5113213;28;20694;-69
2022/04/12 08:57:25;;;;;;;2.37;2.27;;;;;;;18.04;41.43;100469.56;5115631;28;20173;-69
2022/04/12 08:59:52;;;;;;;3.23;2.27;;;;;;;18.22;41.53;100473.47;5117738;28;20181;-70
2022/04/12 09:02:18;;;;;;;2.80;2.57;;;;;;;18.37;42.27;100472.28;5117599;28;20258;-70
2022/04/12 09:04:45;;;;;;;3.07;2.87;;;;;;;18.62;41.92;100457.06;5117562;28;20189;-70
2022/04/12 09:07:12;;;;;;;5.20;2.37;;;;;;;18.53;40.93;100458.66;5117309;28;20234;-70
2022/04/12 09:09:43;;;;;;;3.03;2.77;;;;;;;18.69;42.86;100448.53;5117188;28;20234;-69
2022/04/12 09:12:14;;;;;;;2.27;2.00;;;;;;;18.76;41.55;100458.66;5117657;28;20215;-69
2022/04/12 09:14:43;;;;;;;2.00;1.87;;;;;;;18.70;39.74;100470.59;5117381;28;20177;-69
2022/04/12 09:17:11;;;;;;;2.43;2.43;;;;;;;18.77;40.41;100468.31;5116935;28;20242;-69
2022/04/12 09:19:40;;;;;;;5.43;2.40;;;;;;;18.82;40.72;100464.34;5117027;28;20651;-69
2022/04/12 09:22:13;;;;;;;3.37;1.90;;;;;;;18.95;39.88;100458.91;5117015;28;20200;-69
2022/04/12 09:24:44;;;;;;;2.27;2.27;;;;;;;19.11;40.83;100446.06;5117770;28;20204;-70
2022/04/12 09:27:13;;;;;;;4.03;1.90;;;;;;;19.31;40.99;100444.44;5117237;28;20246;-69
2022/04/12 09:30:03;;;;;;;3.43;2.30;;;;;;;19.67;39.99;100443.22;5116952;28;20189;-69
2022/04/12 09:32:35;;;;;;;3.33;2.20;;;;;;;19.57;38.32;100447.59;5104049;28;20197;-69
2022/04/12 09:35:02;;;;;;;1.60;1.60;;;;;;;19.73;38.85;100456.00;5117050;28;20690;-70
2022/04/12 09:37:34;;;;;;;10.67;1.80;;;;;;;19.49;38.30;100458.84;5116760;28;20596;-69
2022/04/12 09:40:02;;;;;;;2.10;1.93;;;;;;;19.67;40.06;100451.19;5117034;28;20672;-70
2022/04/12 09:42:51;;;;;;;2.00;2.00;;;;;;;19.82;37.72;100454.38;5116561;28;20213;-69
2022/04/12 09:45:25;;;;;;;1.90;1.90;;;;;;;19.92;37.72;100443.81;5116608;28;20205;-71
2022/04/12 09:48:04;;;;;;;1.97;1.87;;;;;;;19.96;39.16;100443.44;5117127;28;20211;-70
2022/04/12 09:50:51;;;;;;;2.00;1.93;;;;;;;20.23;38.11;100434.06;5117053;28;20585;-69
2022/04/12 09:53:18;;;;;;;2.93;2.83;;;;;;;20.32;37.82;100435.94;5116684;28;20188;-70
2022/04/12 09:55:47;;;;;;;6.00;2.10;;;;;;;20.42;36.91;100442.13;5116257;28;20213;-69
2022/04/12 09:58:15;;;;;;;2.67;2.03;;;;;;;20.45;37.34;100431.25;5116327;28;20190;-69
2022/04/12 10:00:43;;;;;;;2.83;2.07;;;;;;;20.54;38.04;100419.81;5116206;28;20230;-70
2022/04/12 10:03:13;;;;;;;2.43;1.90;;;;;;;20.40;36.97;100422.81;5116242;28;20669;-70
2022/04/12 10:05:39;;;;;;;2.20;2.00;;;;;;;20.43;38.88;100419.03;5116235;28;20205;-70
2022/04/12 10:08:10;;;;;;;2.40;1.77;;;;;;;20.45;38.18;100417.13;5115379;28;20189;-70
2022/04/12 10:10:36;;;;;;;5.57;2.20;;;;;;;20.34;38.60;100418.84;5116079;28;20593;-69
2022/04/12 10:13:03;;;;;;;2.10;2.00;;;;;;;20.34;39.05;100420.69;5116250;28;20659;-70
2022/04/12 10:15:29;;;;;;;2.13;2.13;;;;;;;20.49;38.40;100413.19;5115872;28;20213;-69
2022/04/12 10:17:56;;;;;;;6.17;2.00;;;;;;;20.73;38.88;100410.22;5116046;28;20207;-70
2022/04/12 10:20:23;;;;;;;5.33;2.70;;;;;;;20.77;37.80;100406.28;5115973;28;20181;-69
2022/04/12 10:22:50;;;;;;;1.70;1.70;;;;;;;20.85;37.00;100401.13;5116335;28;20234;-70
2022/04/12 10:25:19;;;;;;;1.60;1.60;;;;;;;20.92;36.47;100402.25;5115966;28;20205;-70
2022/04/12 10:27:48;;;;;;;1.83;1.80;;;;;;;21.23;37.30;100410.16;5115785;28;20181;-69
2022/04/12 10:30:15;;;;;;;2.43;2.27;;;;;;;21.38;37.84;100403.47;5116019;28;20549;-70
2022/04/12 10:33:24;;;;;;;1.63;1.63;;;;;;;21.54;34.85;100409.06;5115999;28;20182;-70
2022/04/12 10:35:55;;;;;;;1.73;1.73;;;;;;;21.51;36.04;100395.19;5013184;28;20220;-69
2022/04/12 10:38:23;;;;;;;1.60;1.53;;;;;;;21.53;35.82;100402.03;5103464;28;20288;-70
2022/04/12 10:40:54;;;;;;;1.80;1.80;;;;;;;21.71;36.84;100392.31;5115906;28;20178;-70
2022/04/12 10:43:33;;;;;;;1.40;1.40;;;;;;;21.92;36.48;100388.63;5115554;28;20178;-70
2022/04/12 10:46:08;;;;;;;1.30;1.30;;;;;;;21.99;36.57;100397.75;5115669;28;20224;-70
2022/04/12 10:48:34;;;;;;;3.43;2.07;;;;;;;22.25;35.38;100400.66;5115720;28;20252;-70
2022/04/12 10:51:03;;;;;;;1.87;1.73;;;;;;;22.03;34.24;100404.47;5115399;28;20185;-70
2022/04/12 10:53:36;;;;;;;1.77;1.67;;;;;;;21.84;36.36;100396.53;5115234;28;20230;-70
2022/04/12 10:56:10;;;;;;;1.60;1.60;;;;;;;21.87;33.81;100404.25;5115209;28;20702;-70
2022/04/12 10:58:37;;;;;;;3.60;2.10;;;;;;;22.03;34.71;100398.31;5115537;28;20173;-71
2022/04/12 11:01:05;;;;;;;1.60;1.53;;;;;;;21.79;34.98;100406.75;5115378;28;20643;-69
2022/04/12 11:03:40;;;;;;;1.93;1.70;;;;;;;21.60;33.60;100403.16;5115396;28;20181;-69
2022/04/12 11:06:14;;;;;;;6.90;1.93;;;;;;;21.68;34.88;100405.94;5114956;28;20701;-70
2022/04/12 11:08:43;;;;;;;4.13;1.50;;;;;;;21.70;34.42;100395.97;5115026;28;20230;-70
2022/04/12 11:11:10;;;;;;;2.00;2.00;;;;;;;21.80;35.39;100393.31;5114894;28;20208;-70
2022/04/12 11:13:37;;;;;;;2.23;2.13;;;;;;;22.04;34.29;100400.81;5114850;28;20238;-69
2022/04/12 11:16:10;;;;;;;2.23;2.13;;;;;;;22.04;34.03;100399.97;5096687;28;20201;-70
2022/04/12 11:18:57;;;;;;;2.43;2.40;;;;;;;22.39;32.85;100402.00;5114746;28;20234;-70
2022/04/12 11:21:26;;;;;;;9.93;2.70;;;;;;;22.41;32.82;100402.69;5114644;28;20193;-70
2022/04/12 11:24:04;;;;;;;2.43;2.33;;;;;;;22.46;34.98;100398.59;5096936;28;20708;-70
2022/04/12 11:26:40;;;;;;;1.73;1.60;;;;;;;22.49;33.90;100390.28;5114683;28;20691;-70
2022/04/12 11:29:09;;;;;;;1.60;1.60;;;;;;;22.67;35.33;100394.84;5114907;28;20173;-70
2022/04/12 11:31:51;;;;;;;3.00;1.40;;;;;;;22.84;35.90;100403.84;5114556;28;20174;-70
2022/04/12 11:34:18;;;;;;;1.47;1.40;;;;;;;22.56;32.65;100395.03;5115046;28;20630;-70